This is the latest recevied weather packets stored in our database for station/object KF6YUA. If no packets are shown the sender has not sent any weather packets the latest 1 day(s).
| Time | Temp. | Humidity | Pressure | Rain* | Wind** | Luminosity | Snow |
|---|---|---|---|---|---|---|---|
| 1778033286 | 14.44° C | 82% | 1017.6 hPa | 0 mm | - | 35 W/m² | - |
| 1778032984 | 15° C | 82% | 1017.6 hPa | 0 mm | - | 44 W/m² | - |
| 1778032681 | 15° C | 81% | 1017.6 hPa | 0 mm | - | 46 W/m² | - |
| 1778032379 | 15° C | 81% | 1017.7 hPa | 0 mm | - | 49 W/m² | - |
| 1778032075 | 15° C | 81% | 1017.6 hPa | 0 mm | - | 53 W/m² | - |
| 1778031772 | 15° C | 80% | 1017.4 hPa | 0 mm | - | 54 W/m² | - |
| 1778031469 | 15° C | 80% | 1017.4 hPa | 0 mm | - | 62 W/m² | - |
| 1778030863 | 15° C | 80% | 1017.4 hPa | 0 mm | - | 81 W/m² | - |
| 1778030257 | 15.56° C | 79% | 1017.4 hPa | 0 mm | - | 86 W/m² | - |
| 1778029953 | 15.56° C | 78% | 1017.4 hPa | 0 mm | - | 87 W/m² | - |
| 1778029046 | 15.56° C | 78% | 1017.3 hPa | 0 mm | - | 109 W/m² | - |
| 1778028742 | 16.11° C | 77% | 1017.5 hPa | 0 mm | - | 120 W/m² | - |
| 1778028438 | 16.11° C | 79% | 1017.5 hPa | 0 mm | - | 117 W/m² | - |
| 1778028136 | 15.56° C | 78% | 1017.6 hPa | 0 mm | - | 116 W/m² | - |
| 1778027832 | 15.56° C | 79% | 1017.2 hPa | 0 mm | - | 124 W/m² | - |
| 1778026011 | 16.67° C | 77% | 1017.2 hPa | 0 mm | - | 174 W/m² | - |
| 1778024497 | 17.78° C | 74% | 1017.2 hPa | 0 mm | - | 218 W/m² | - |
| 1778022380 | 17.78° C | 74% | 1017.2 hPa | 0 mm | - | 214 W/m² | - |
| 1778020863 | 17.78° C | 75% | 1017.2 hPa | 0 mm | - | 220 W/m² | - |
| 1778020560 | 17.78° C | 75% | 1017.5 hPa | 0 mm | - | 262 W/m² | - |
| 1778020256 | 17.78° C | 74% | 1017.3 hPa | 0 mm | - | 252 W/m² | - |
| 1778019042 | 18.33° C | 75% | 1017.3 hPa | 0 mm | - | 311 W/m² | - |
| 1778016621 | 18.33° C | 76% | 1017.5 hPa | 0 mm | - | 421 W/m² | - |
| 1778016015 | 18.89° C | 73% | 1017.7 hPa | 0 mm | - | 343 W/m² | - |
| 1778013895 | 17.78° C | 75% | 1017.8 hPa | 0 mm | - | 239 W/m² | - |
* Rain latest hour (hover to see other rain measurements)
** Current wind speed in m/s (hover to see current wind gust speed)